Time;durP1;ratioP1;P1;durP2;ratioP2;P2;SDS_P1;SDS_P2;PMS_P1;PMS_P2;Temp;Humidity;BMP_temperature;BMP_pressure;BME280_temperature;BME280_humidity;BME280_pressure;Samples;Min_cycle;Max_cycle;Signal;HPM_P1;HPM_P2
2024/04/08 00:00:47;;;;;;;8.73;6.38;;;;;;;31.01;88.73;100871.53;5503985;25;68123;-33
2024/04/08 00:03:18;;;;;;;9.23;5.65;;;;;;;31.10;85.33;100881.03;5474960;25;65769;-33
2024/04/08 00:05:49;;;;;;;10.25;7.03;;;;;;;31.09;85.92;100884.81;5491995;25;69246;-33
2024/04/08 00:08:21;;;;;;;11.15;7.68;;;;;;;31.14;85.54;100900.38;5486891;25;64129;-35
2024/04/08 00:10:51;;;;;;;16.83;8.70;;;;;;;31.16;86.27;100893.69;5482789;25;68635;-35
2024/04/08 00:13:22;;;;;;;16.38;9.20;;;;;;;31.22;85.27;100888.44;5490894;25;65339;-33
2024/04/08 00:15:59;;;;;;;14.57;8.63;;;;;;;31.26;87.72;100900.47;5473763;25;68459;-33
2024/04/08 00:18:30;;;;;;;18.05;8.93;;;;;;;31.25;86.07;100907.78;5488411;25;65173;-33
2024/04/08 00:21:04;;;;;;;9.52;8.18;;;;;;;31.22;86.63;100893.84;5481158;25;68963;-33
2024/04/08 00:23:35;;;;;;;10.18;7.82;;;;;;;31.25;85.82;100904.25;5483686;25;64411;-32
2024/04/08 00:26:06;;;;;;;9.13;8.13;;;;;;;31.26;86.65;100905.88;5483083;25;66528;-34
2024/04/08 00:28:40;;;;;;;9.52;7.72;;;;;;;31.29;85.58;100910.91;5467249;25;66121;-33
2024/04/08 00:31:11;;;;;;;8.13;7.45;;;;;;;31.35;85.41;100910.81;5473285;25;67992;-33
2024/04/08 00:33:42;;;;;;;6.97;6.43;;;;;;;31.35;85.93;100918.94;5461894;25;66928;-34
2024/04/08 00:36:13;;;;;;;8.07;6.38;;;;;;;31.41;86.54;100922.69;5467152;25;69629;-32
2024/04/08 00:38:43;;;;;;;13.13;6.43;;;;;;;31.41;86.32;100932.69;5470160;25;65053;-34
2024/04/08 00:41:15;;;;;;;10.10;6.28;;;;;;;31.45;86.58;100926.59;5467483;25;68629;-34
2024/04/08 00:43:45;;;;;;;7.05;6.18;;;;;;;31.46;85.36;100925.56;5489079;25;64959;-34
2024/04/08 00:46:24;;;;;;;8.95;5.75;;;;;;;31.41;86.53;100914.56;5475348;25;69063;-34
2024/04/08 00:48:57;;;;;;;5.88;5.13;;;;;;;31.52;86.05;100937.38;5478021;25;63755;-34
2024/04/08 00:51:28;;;;;;;8.70;5.68;;;;;;;31.55;86.23;100937.75;5455024;25;68409;-34
2024/04/08 00:53:59;;;;;;;10.90;5.18;;;;;;;31.58;85.75;100948.16;5449731;25;65198;-34
2024/04/08 00:56:31;;;;;;;6.03;5.25;;;;;;;31.50;86.53;100942.19;5456879;25;68275;-34
2024/04/08 00:59:03;;;;;;;9.23;5.35;;;;;;;31.59;86.65;100952.56;5458897;25;65184;-34
2024/04/08 01:01:34;;;;;;;7.50;4.95;;;;;;;31.61;85.80;100949.59;5466623;25;67954;-34
2024/04/08 01:04:05;;;;;;;5.82;4.43;;;;;;;31.60;85.85;100962.34;5472836;25;64182;-33
2024/04/08 01:06:36;;;;;;;4.40;4.00;;;;;;;31.58;85.61;100958.19;5462511;25;68340;-34
2024/04/08 01:09:06;;;;;;;10.38;5.70;;;;;;;31.58;85.13;100953.59;5462574;25;64320;-33
2024/04/08 01:11:38;;;;;;;5.88;4.93;;;;;;;31.65;85.66;100958.09;5471967;25;68372;-33
2024/04/08 01:14:09;;;;;;;10.47;5.13;;;;;;;31.59;84.62;100944.41;5470338;25;64758;-33
2024/04/08 01:16:39;;;;;;;10.37;5.27;;;;;;;31.64;84.74;100956.47;5471558;25;70202;-34
2024/04/08 01:19:13;;;;;;;5.15;4.65;;;;;;;31.66;85.32;100965.22;5466235;25;65365;-34
2024/04/08 01:21:47;;;;;;;6.78;4.75;;;;;;;31.68;85.36;100958.50;5461404;25;68571;-33
2024/04/08 01:24:18;;;;;;;6.28;4.57;;;;;;;31.70;83.69;100958.28;5473280;25;64618;-34
2024/04/08 01:26:50;;;;;;;5.00;4.27;;;;;;;31.71;83.70;100947.22;5470650;25;69596;-33
2024/04/08 01:29:20;;;;;;;5.35;4.38;;;;;;;31.78;84.57;100955.25;5446673;25;64025;-34
2024/04/08 01:31:51;;;;;;;6.00;4.18;;;;;;;31.82;83.78;100948.34;5465165;25;68687;-38
2024/04/08 01:34:23;;;;;;;4.40;4.00;;;;;;;31.83;83.94;100955.44;5458089;25;65806;-33
2024/04/08 01:36:54;;;;;;;9.77;4.63;;;;;;;31.86;82.94;100954.16;5459867;25;67626;-33
2024/04/08 01:39:25;;;;;;;5.40;3.92;;;;;;;31.87;83.55;100950.38;5464014;25;65296;-34
2024/04/08 01:41:56;;;;;;;5.63;3.88;;;;;;;31.90;82.75;100960.75;5477739;25;67781;-34
2024/04/08 01:44:27;;;;;;;5.53;3.97;;;;;;;31.89;83.00;100959.94;5465615;25;64611;-33
2024/04/08 01:46:58;;;;;;;4.15;3.65;;;;;;;31.93;83.00;100955.78;5476242;25;68717;-34
2024/04/08 01:49:28;;;;;;;4.90;3.50;;;;;;;31.95;83.51;100952.81;5461270;25;64770;-34
2024/04/08 01:51:59;;;;;;;3.97;3.67;;;;;;;31.94;83.79;100957.41;5480089;25;68078;-34
2024/04/08 01:54:30;;;;;;;4.25;3.65;;;;;;;31.96;83.17;100947.19;5480694;25;65309;-34
2024/04/08 01:57:00;;;;;;;4.57;3.38;;;;;;;31.98;83.71;100950.50;5447264;25;68640;-33
2024/04/08 01:59:31;;;;;;;5.10;4.50;;;;;;;32.01;83.31;100947.34;5470811;25;64554;-34
2024/04/08 02:02:02;;;;;;;4.25;3.85;;;;;;;32.03;83.26;100945.19;5476785;25;69256;-33
2024/04/08 02:04:33;;;;;;;5.47;4.32;;;;;;;32.05;83.77;100947.69;5464716;25;65345;-33
2024/04/08 02:07:04;;;;;;;8.43;4.70;;;;;;;32.09;83.38;100948.06;5484595;25;68864;-33
2024/04/08 02:09:35;;;;;;;4.23;3.93;;;;;;;32.12;82.62;100959.28;5460551;25;65226;-36
2024/04/08 02:12:06;;;;;;;5.70;3.67;;;;;;;32.11;83.32;100945.97;5482089;25;69942;-39
2024/04/08 02:14:37;;;;;;;5.97;3.72;;;;;;;32.16;82.51;100965.13;5460423;25;64684;-34
2024/04/08 02:17:08;;;;;;;7.93;4.10;;;;;;;32.19;83.32;100956.50;5450648;25;68602;-34
2024/04/08 02:19:39;;;;;;;4.38;3.90;;;;;;;32.18;82.76;100946.69;5477744;25;63871;-34
2024/04/08 02:22:10;;;;;;;4.90;3.90;;;;;;;32.25;82.38;100958.31;5432469;25;69716;-33
2024/04/08 02:24:42;;;;;;;4.55;3.60;;;;;;;32.29;81.96;100954.09;5468668;25;65059;-33
2024/04/08 02:27:13;;;;;;;;;;;;;;;32.27;82.91;100956.19;5463185;25;68586;-34
2024/04/08 02:29:43;;;;;;;4.53;3.80;;;;;;;32.34;82.40;100956.09;5466949;25;64799;-34
2024/04/08 02:32:14;;;;;;;4.30;3.75;;;;;;;32.38;81.68;100960.88;5459553;25;68538;-34
2024/04/08 02:34:45;;;;;;;3.88;3.58;;;;;;;32.38;81.14;100952.72;5462575;25;64708;-34
2024/04/08 02:37:16;;;;;;;3.95;3.65;;;;;;;32.43;81.96;100952.88;5478042;25;68906;-33
2024/04/08 02:39:47;;;;;;;4.15;3.75;;;;;;;32.48;81.32;100952.19;5460518;25;64030;-35
2024/04/08 02:42:17;;;;;;;4.95;3.85;;;;;;;32.53;81.36;100948.78;5473968;25;67957;-33
2024/04/08 02:44:48;;;;;;;3.70;3.40;;;;;;;32.55;81.10;100935.81;5459118;25;65100;-35
2024/04/08 02:47:18;;;;;;;4.07;3.78;;;;;;;32.59;81.68;100942.44;5475736;25;69337;-34
2024/04/08 02:49:49;;;;;;;3.90;3.60;;;;;;;32.62;80.77;100937.38;5480158;25;65750;-34
2024/04/08 02:52:20;;;;;;;4.47;4.15;;;;;;;32.63;80.98;100932.78;5447996;25;68909;-34
2024/04/08 02:54:53;;;;;;;6.35;3.58;;;;;;;32.68;80.60;100930.19;5463200;25;64928;-33
2024/04/08 02:57:24;;;;;;;4.22;3.83;;;;;;;32.68;80.87;100928.31;5459620;25;68714;-34
2024/04/08 02:59:56;;;;;;;3.95;3.40;;;;;;;32.74;80.92;100923.84;5471968;25;64028;-33
2024/04/08 03:02:27;;;;;;;4.38;3.58;;;;;;;32.77;80.03;100923.38;5474768;25;68235;-34
2024/04/08 03:04:57;;;;;;;3.85;3.55;;;;;;;32.81;80.58;100921.84;5466811;25;65237;-33
2024/04/08 03:07:29;;;;;;;6.03;3.63;;;;;;;32.84;80.34;100929.50;5457965;25;68828;-34
2024/04/08 03:10:01;;;;;;;5.27;3.80;;;;;;;32.89;79.87;100926.94;5467687;25;65098;-34
2024/04/08 03:12:31;;;;;;;3.60;3.15;;;;;;;32.91;80.85;100916.66;5462040;25;69076;-33
2024/04/08 03:15:02;;;;;;;3.55;3.30;;;;;;;32.94;80.52;100918.09;5465514;25;64018;-33
2024/04/08 03:17:33;;;;;;;4.43;3.78;;;;;;;32.98;80.83;100907.56;5475864;25;68160;-34
2024/04/08 03:20:04;;;;;;;3.83;3.42;;;;;;;33.01;80.57;100912.56;5466904;25;63202;-34
2024/04/08 03:22:35;;;;;;;3.33;3.03;;;;;;;33.02;80.49;100915.06;5461769;25;67915;-34
2024/04/08 03:25:06;;;;;;;4.20;3.90;;;;;;;33.03;79.81;100905.84;5466931;25;64308;-34
2024/04/08 03:27:38;;;;;;;3.40;3.10;;;;;;;33.08;80.39;100907.88;5463801;25;67821;-34
2024/04/08 03:30:09;;;;;;;4.63;3.47;;;;;;;33.15;80.43;100914.00;5464827;25;65004;-33
2024/04/08 03:32:39;;;;;;;2.93;2.73;;;;;;;33.17;79.62;100917.31;5462410;25;67691;-34
2024/04/08 03:35:11;;;;;;;;;;;;;;;33.15;79.82;100919.44;5463332;25;65201;-34
2024/04/08 03:37:42;;;;;;;3.15;2.95;;;;;;;33.25;79.80;100919.69;5461426;25;68911;-34
2024/04/08 03:40:13;;;;;;;3.67;3.38;;;;;;;33.10;79.43;100886.72;5468501;25;64586;-34
2024/04/08 03:42:44;;;;;;;3.65;3.35;;;;;;;33.22;79.69;100898.41;5466785;25;67844;-33
2024/04/08 03:45:15;;;;;;;3.85;3.55;;;;;;;33.34;79.22;100912.00;5464879;25;66065;-34
2024/04/08 03:47:46;;;;;;;5.88;3.53;;;;;;;33.35;79.77;100906.34;5463686;25;68619;-34
2024/04/08 03:50:16;;;;;;;3.28;2.97;;;;;;;33.40;79.03;100900.19;5464933;25;65262;-33
2024/04/08 03:52:47;;;;;;;3.10;2.90;;;;;;;33.42;78.71;100891.78;5468722;25;69300;-34
2024/04/08 03:55:19;;;;;;;3.90;3.58;;;;;;;33.46;78.88;100899.25;5464340;25;65243;-34
2024/04/08 03:57:52;;;;;;;3.10;2.80;;;;;;;33.46;79.11;100895.69;5456855;25;67745;-33
2024/04/08 04:00:31;;;;;;;3.00;2.80;;;;;;;33.54;79.10;100898.06;5442503;25;64800;-34
2024/04/08 04:03:02;;;;;;;4.72;3.20;;;;;;;33.57;78.30;100894.88;5465007;25;69121;-33
2024/04/08 04:05:34;;;;;;;3.38;3.08;;;;;;;33.60;78.98;100891.69;5468962;25;65082;-35
2024/04/08 04:08:07;;;;;;;3.08;2.88;;;;;;;33.59;79.32;100882.69;5466564;25;69107;-34
2024/04/08 04:10:38;;;;;;;3.17;2.88;;;;;;;33.66;78.82;100888.03;5460735;25;65171;-33
2024/04/08 04:13:09;;;;;;;2.93;2.60;;;;;;;33.68;78.98;100874.16;5475060;25;68966;-34
2024/04/08 04:15:39;;;;;;;3.40;3.10;;;;;;;33.73;78.92;100877.81;5465428;25;63370;-34
2024/04/08 04:18:12;;;;;;;2.73;2.40;;;;;;;33.74;78.55;100868.59;5460448;25;69652;-34
2024/04/08 04:20:47;;;;;;;3.50;2.90;;;;;;;33.58;78.41;100828.56;5468208;25;65250;-34
2024/04/08 04:23:18;;;;;;;6.93;2.85;;;;;;;33.77;78.62;100856.41;5470474;25;67637;-33
2024/04/08 04:25:53;;;;;;;3.15;2.80;;;;;;;33.85;78.05;100857.91;5482042;25;65456;-33
2024/04/08 04:28:24;;;;;;;3.45;3.08;;;;;;;33.89;77.83;100856.38;5481864;25;67977;-34
2024/04/08 04:30:59;;;;;;;5.67;2.27;;;;;;;33.92;77.54;100845.00;5461592;25;66150;-34
2024/04/08 04:33:33;;;;;;;3.22;2.92;;;;;;;33.96;77.80;100848.88;5461986;25;68769;-34
2024/04/08 04:36:04;;;;;;;2.90;2.70;;;;;;;33.96;78.14;100838.00;5494097;25;65063;-34
2024/04/08 04:38:35;;;;;;;4.43;3.13;;;;;;;33.95;77.62;100825.47;5480070;25;68055;-34
2024/04/08 04:41:07;;;;;;;4.27;2.47;;;;;;;34.01;78.20;100825.31;5486770;25;65291;-34
2024/04/08 04:43:38;;;;;;;9.45;3.85;;;;;;;34.06;77.68;100830.06;5464557;25;69098;-34
2024/04/08 04:46:10;;;;;;;3.28;2.63;;;;;;;34.09;77.53;100826.84;5468591;25;64219;-35
2024/04/08 04:48:41;;;;;;;4.05;2.90;;;;;;;34.14;77.19;100821.50;5463842;25;68405;-34
2024/04/08 04:51:15;;;;;;;3.30;3.00;;;;;;;34.15;77.91;100820.44;5463147;25;64217;-34
2024/04/08 04:53:45;;;;;;;2.80;2.60;;;;;;;34.16;77.83;100811.22;5466676;25;68901;-34
2024/04/08 04:56:16;;;;;;;3.10;2.67;;;;;;;34.19;77.09;100809.91;5467476;25;65126;-34
2024/04/08 04:58:47;;;;;;;3.57;2.87;;;;;;;34.21;77.14;100803.16;5465152;25;68965;-33
2024/04/08 05:01:18;;;;;;;4.30;2.93;;;;;;;34.21;77.64;100794.13;5470086;25;65586;-35
2024/04/08 05:03:49;;;;;;;3.03;2.70;;;;;;;34.29;76.98;100801.06;5469772;25;67913;-34
2024/04/08 05:06:20;;;;;;;4.82;2.83;;;;;;;34.33;77.19;100794.09;5459314;25;64356;-34
2024/04/08 05:08:51;;;;;;;2.92;2.38;;;;;;;34.37;77.55;100797.94;5466999;25;68372;-35
2024/04/08 05:11:24;;;;;;;3.58;2.45;;;;;;;34.34;77.47;100779.38;5433770;25;64168;-35
2024/04/08 05:13:55;;;;;;;2.70;2.50;;;;;;;34.41;76.58;100782.78;5463265;25;69362;-34
2024/04/08 05:16:25;;;;;;;3.08;2.45;;;;;;;34.42;77.64;100781.69;5465170;25;65038;-33
2024/04/08 05:18:57;;;;;;;3.00;2.80;;;;;;;34.43;77.50;100769.72;5461574;25;67896;-35
2024/04/08 05:21:28;;;;;;;2.58;2.38;;;;;;;34.49;76.45;100771.44;5455141;26;65686;-35
2024/04/08 05:23:59;;;;;;;5.60;2.85;;;;;;;34.45;76.87;100753.97;5457347;26;68636;-35
2024/04/08 05:26:30;;;;;;;6.30;2.80;;;;;;;34.53;76.63;100756.28;5457434;26;65117;-34
2024/04/08 05:29:04;;;;;;;2.53;2.33;;;;;;;34.57;77.08;100757.44;5454745;26;68241;-34
2024/04/08 05:31:35;;;;;;;2.92;2.45;;;;;;;34.57;77.27;100740.28;5456494;25;64837;-34
2024/04/08 05:34:06;;;;;;;2.45;2.22;;;;;;;34.63;76.70;100742.84;5439676;25;68749;-34
2024/04/08 05:36:37;;;;;;;2.50;2.30;;;;;;;34.66;76.65;100734.19;5456805;25;65207;-34
2024/04/08 05:39:09;;;;;;;2.80;2.60;;;;;;;34.68;76.42;100731.19;5454562;26;68755;-34
2024/04/08 05:41:40;;;;;;;3.10;2.80;;;;;;;34.72;77.02;100720.63;5447789;25;65007;-34
2024/04/08 05:44:11;;;;;;;2.60;2.40;;;;;;;34.68;76.61;100710.22;5436548;26;68775;-34
2024/04/08 05:46:42;;;;;;;2.28;2.08;;;;;;;34.79;76.73;100715.81;5456971;26;65299;-34
2024/04/08 05:49:13;;;;;;;2.38;2.20;;;;;;;34.81;76.72;100708.22;5452172;26;68815;-34
2024/04/08 05:51:48;;;;;;;2.63;2.42;;;;;;;34.85;76.31;100703.91;5463734;25;64613;-34
2024/04/08 05:54:20;;;;;;;5.78;2.58;;;;;;;34.86;76.61;100700.13;5447155;25;67858;-34
2024/04/08 05:56:50;;;;;;;2.58;2.38;;;;;;;34.90;76.20;100690.34;5454595;25;65128;-34
2024/04/08 05:59:22;;;;;;;2.63;2.42;;;;;;;34.92;76.34;100677.31;5448112;26;68415;-34
2024/04/08 06:01:52;;;;;;;6.23;2.43;;;;;;;34.95;76.31;100682.25;5447305;26;64293;-34
2024/04/08 06:04:23;;;;;;;3.50;3.20;;;;;;;34.84;76.26;100653.22;5456635;25;67734;-33
2024/04/08 06:07:00;;;;;;;2.67;2.47;;;;;;;35.02;76.34;100672.00;5456225;26;65547;-33
2024/04/08 06:09:32;;;;;;;4.70;3.08;;;;;;;35.04;76.57;100661.63;5452488;26;68008;-35
2024/04/08 06:12:03;;;;;;;2.83;2.47;;;;;;;35.08;76.25;100660.09;5455943;25;65966;-35
2024/04/08 06:14:34;;;;;;;;;;;;;;;35.04;75.66;100658.91;5449744;26;68174;-33
2024/04/08 06:17:04;;;;;;;2.83;2.53;;;;;;;35.16;75.90;100645.19;5453823;25;64025;-34
2024/04/08 06:19:35;;;;;;;2.22;2.13;;;;;;;35.16;76.16;100639.75;5457118;25;67961;-35
2024/04/08 06:22:07;;;;;;;2.95;2.38;;;;;;;35.24;76.07;100650.19;5455978;26;64351;-34
2024/04/08 06:24:38;;;;;;;2.30;2.10;;;;;;;35.28;75.78;100645.88;5451192;25;69079;-35
2024/04/08 06:27:09;;;;;;;2.88;2.67;;;;;;;35.33;75.66;100635.03;5461028;25;65071;-34
2024/04/08 06:29:40;;;;;;;2.75;2.55;;;;;;;35.36;75.20;100634.50;5457510;25;68778;-34
2024/04/08 06:32:11;;;;;;;2.28;2.08;;;;;;;35.40;75.19;100618.44;5452521;26;65914;-35
2024/04/08 06:34:42;;;;;;;2.60;2.40;;;;;;;35.44;75.50;100614.13;5456617;25;69897;-34
2024/04/08 06:37:14;;;;;;;3.88;2.58;;;;;;;35.44;75.25;100602.38;5456276;25;65610;-34
2024/04/08 06:39:45;;;;;;;2.85;2.47;;;;;;;35.55;75.20;100618.59;5453321;26;68677;-34
2024/04/08 06:42:18;;;;;;;2.55;2.35;;;;;;;35.56;75.58;100605.81;5449787;25;65248;-34
2024/04/08 06:44:52;;;;;;;2.60;2.20;;;;;;;35.62;74.96;100609.41;5452839;26;68081;-34
2024/04/08 06:47:29;;;;;;;2.47;2.28;;;;;;;35.68;75.18;100603.72;5456082;25;63662;-34
2024/04/08 06:50:00;;;;;;;2.58;2.42;;;;;;;35.75;74.88;100606.25;5455557;25;70449;-34
2024/04/08 06:52:31;;;;;;;2.67;2.47;;;;;;;35.80;75.07;100600.81;5454053;25;64893;-35
2024/04/08 06:55:02;;;;;;;2.30;2.10;;;;;;;35.83;74.99;100600.31;5455970;25;67633;-33
2024/04/08 06:57:32;;;;;;;2.47;2.28;;;;;;;35.88;74.63;100597.59;5456770;26;64672;-34
2024/04/08 07:00:06;;;;;;;2.58;2.38;;;;;;;35.92;75.02;100598.75;5456656;25;68196;-35
2024/04/08 07:02:37;;;;;;;2.60;2.40;;;;;;;35.98;74.42;100594.97;5456351;25;65006;-35
2024/04/08 07:05:10;;;;;;;2.78;2.40;;;;;;;36.02;74.75;100587.91;5450259;26;67997;-33
2024/04/08 07:07:43;;;;;;;5.35;2.40;;;;;;;36.10;74.29;100577.59;5438772;26;64979;-34
2024/04/08 07:10:15;;;;;;;2.72;2.53;;;;;;;36.13;74.57;100577.88;5446813;26;69484;-34
2024/04/08 07:12:48;;;;;;;3.08;2.75;;;;;;;36.20;73.99;100578.47;5451962;25;65012;-34
2024/04/08 07:15:20;;;;;;;2.88;2.45;;;;;;;36.24;74.38;100571.38;5455760;25;68711;-35
2024/04/08 07:17:53;;;;;;;2.58;2.38;;;;;;;36.31;73.42;100571.16;5455841;25;65410;-33
2024/04/08 07:20:24;;;;;;;1.83;1.70;;;;;;;36.33;73.87;100560.81;5454268;26;69047;-35
2024/04/08 07:22:55;;;;;;;2.45;2.25;;;;;;;36.42;74.09;100553.75;5455600;25;65179;-34
2024/04/08 07:25:29;;;;;;;2.85;2.35;;;;;;;36.45;73.39;100542.28;5454627;26;69118;-37
2024/04/08 07:28:00;;;;;;;2.67;2.47;;;;;;;36.55;73.77;100552.44;5454375;25;63779;-34
2024/04/08 07:30:31;;;;;;;3.05;2.38;;;;;;;36.60;73.55;100535.25;5455789;25;67985;-35
2024/04/08 07:33:06;;;;;;;2.65;2.45;;;;;;;36.66;73.56;100542.38;5452335;25;64148;-34
2024/04/08 07:35:54;;;;;;;;;;;;;;;;;;;;;
2024/04/08 07:38:25;;;;;;;3.35;3.05;;;;;;;36.79;73.70;100530.94;5454278;25;64032;-34
2024/04/08 07:40:56;;;;;;;3.40;2.85;;;;;;;36.86;72.62;100541.63;5432500;26;68360;-34
2024/04/08 07:43:30;;;;;;;3.15;2.88;;;;;;;36.91;72.82;100527.97;5444486;25;65531;-34
2024/04/08 07:46:01;;;;;;;2.65;2.45;;;;;;;37.00;73.22;100525.53;5446992;25;67940;-35
2024/04/08 07:48:32;;;;;;;2.60;2.40;;;;;;;37.03;73.08;100525.84;5456633;26;64200;-34
2024/04/08 07:51:03;;;;;;;2.33;2.22;;;;;;;37.10;72.22;100531.03;5433245;26;70214;-34
2024/04/08 07:53:37;;;;;;;2.88;2.67;;;;;;;37.15;72.46;100522.84;5458073;25;65972;-35
2024/04/08 07:56:08;;;;;;;3.00;2.65;;;;;;;37.20;72.83;100531.06;5457803;25;68881;-35
2024/04/08 07:58:38;;;;;;;2.63;2.40;;;;;;;37.20;72.00;100520.13;5436890;26;65691;-34
2024/04/08 08:01:11;;;;;;;2.90;2.70;;;;;;;37.29;72.34;100523.94;5450770;26;67824;-34
2024/04/08 08:03:42;;;;;;;3.00;2.80;;;;;;;37.35;72.86;100527.50;5456451;25;65388;-34
2024/04/08 08:06:15;;;;;;;2.30;2.10;;;;;;;37.41;72.32;100517.38;5455056;25;68437;-34
2024/04/08 08:08:46;;;;;;;;;;;;;;;37.35;71.73;100517.38;5471950;25;64594;-34
2024/04/08 08:11:17;;;;;;;3.15;2.70;;;;;;;37.51;72.16;100517.44;5465883;25;67595;-34
2024/04/08 08:13:47;;;;;;;;;;;;;;;37.47;71.39;100508.06;5451483;26;64960;-34
2024/04/08 08:16:18;;;;;;;3.47;2.28;;;;;;;37.58;72.40;100501.53;5454062;26;69118;-34
2024/04/08 08:18:51;;;;;;;2.58;2.38;;;;;;;37.63;71.80;100511.66;5457705;25;64953;-33
2024/04/08 08:21:23;;;;;;;8.98;2.80;;;;;;;37.64;71.81;100508.66;5454816;25;68655;-34
2024/04/08 08:23:54;;;;;;;2.78;2.58;;;;;;;37.66;71.90;100506.44;5458294;25;63997;-34
2024/04/08 08:26:29;;;;;;;3.50;2.60;;;;;;;37.69;72.38;100505.88;5456510;25;67877;-33
2024/04/08 08:28:59;;;;;;;3.13;2.83;;;;;;;37.70;72.17;100507.56;5457934;25;64857;-34
2024/04/08 08:31:31;;;;;;;4.70;2.47;;;;;;;37.74;71.48;100510.53;5457726;25;67901;-34
2024/04/08 08:34:02;;;;;;;2.63;2.42;;;;;;;37.82;71.51;100514.66;5455482;25;66100;-34
2024/04/08 08:36:33;;;;;;;2.85;2.33;;;;;;;37.83;71.60;100510.81;5456714;26;68646;-34
2024/04/08 08:39:04;;;;;;;2.58;2.38;;;;;;;37.86;71.58;100504.78;5458450;25;65014;-34
2024/04/08 08:41:41;;;;;;;2.42;2.22;;;;;;;37.86;71.99;100504.78;5464519;25;69158;-33
2024/04/08 08:44:12;;;;;;;4.75;2.42;;;;;;;37.87;72.22;100496.28;5463652;25;65377;-34
2024/04/08 08:46:44;;;;;;;2.80;2.20;;;;;;;37.90;72.38;100500.41;5457630;25;68950;-33
2024/04/08 08:49:18;;;;;;;2.85;2.60;;;;;;;37.53;71.14;100435.88;5457840;25;65906;-34
2024/04/08 08:51:49;;;;;;;4.43;2.40;;;;;;;37.89;71.43;100493.25;5464743;25;68599;-36
2024/04/08 08:54:21;;;;;;;4.70;2.20;;;;;;;37.93;71.16;100494.34;5452086;25;64883;-34
2024/04/08 08:56:52;;;;;;;4.97;2.22;;;;;;;37.96;72.10;100499.31;5480825;25;68180;-34
2024/04/08 08:59:23;;;;;;;2.38;2.03;;;;;;;37.97;72.17;100492.72;5461918;25;63494;-33
2024/04/08 09:01:59;;;;;;;2.35;2.15;;;;;;;37.77;71.10;100467.00;5471243;25;68227;-33
2024/04/08 09:04:30;;;;;;;2.55;2.03;;;;;;;37.99;72.01;100493.28;5466619;25;65577;-35
2024/04/08 09:07:02;;;;;;;4.45;2.15;;;;;;;38.00;71.94;100497.63;5477917;25;67881;-34
2024/04/08 09:09:32;;;;;;;2.42;2.20;;;;;;;37.99;71.99;100501.50;5468063;25;64551;-34
2024/04/08 09:12:10;;;;;;;2.33;1.95;;;;;;;38.02;71.52;100503.66;5473700;25;69197;-34
2024/04/08 09:14:42;;;;;;;5.53;2.65;;;;;;;38.00;71.60;100500.38;5482278;25;65146;-34
2024/04/08 09:17:14;;;;;;;3.95;2.30;;;;;;;38.02;71.51;100503.66;5487740;25;69424;-34
2024/04/08 09:19:45;;;;;;;2.63;1.95;;;;;;;38.04;71.37;100506.94;5452985;25;64867;-35
2024/04/08 09:22:20;;;;;;;3.28;2.65;;;;;;;37.94;72.71;100506.94;5457863;25;68739;-34
2024/04/08 09:24:51;;;;;;;3.45;2.50;;;;;;;37.84;73.52;100520.66;5480768;25;64389;-34
2024/04/08 09:27:23;;;;;;;4.95;2.22;;;;;;;37.71;73.74;100511.09;5466462;25;69325;-34
2024/04/08 09:29:53;;;;;;;5.80;2.58;;;;;;;37.74;73.67;100519.56;5456016;25;64789;-35
2024/04/08 09:32:25;;;;;;;4.43;2.70;;;;;;;37.69;73.25;100516.84;5478435;25;68847;-34
2024/04/08 09:34:56;;;;;;;9.65;2.55;;;;;;;37.62;73.37;100513.59;5460992;25;64299;-34
2024/04/08 09:37:29;;;;;;;8.05;2.03;;;;;;;37.57;74.33;100513.59;5475784;25;68336;-34
2024/04/08 09:40:03;;;;;;;9.50;2.50;;;;;;;37.56;74.29;100523.72;5487845;25;65018;-35
2024/04/08 09:42:35;;;;;;;7.40;2.75;;;;;;;37.51;74.72;100531.09;5460028;25;68616;-34
2024/04/08 09:45:09;;;;;;;8.88;2.83;;;;;;;37.27;74.83;100496.03;5476769;25;64786;-35
2024/04/08 09:47:40;;;;;;;6.07;3.33;;;;;;;37.47;74.95;100527.22;5473924;25;68649;-33
2024/04/08 09:50:14;;;;;;;4.25;2.63;;;;;;;37.37;74.95;100514.38;5462155;25;65359;-34
2024/04/08 09:52:45;;;;;;;6.55;2.50;;;;;;;37.34;75.33;100528.63;5477426;25;67955;-35
2024/04/08 09:55:16;;;;;;;6.00;2.58;;;;;;;37.37;74.21;100539.00;5465104;25;65249;-35
2024/04/08 09:57:52;;;;;;;7.90;3.05;;;;;;;37.31;75.03;100532.72;5467701;25;68145;-34
2024/04/08 10:00:26;;;;;;;3.10;2.40;;;;;;;37.28;75.30;100555.16;5446340;25;65065;-35
2024/04/08 10:03:15;;;;;;;5.82;2.65;;;;;;;37.20;75.37;100552.94;5457496;25;68531;-35
2024/04/08 10:05:46;;;;;;;3.63;3.20;;;;;;;37.21;75.35;100570.97;5458484;25;65505;-33
2024/04/08 10:08:18;;;;;;;3.88;2.65;;;;;;;37.15;74.71;100572.06;5470480;25;68990;-35
2024/04/08 10:10:49;;;;;;;6.55;2.35;;;;;;;37.05;74.78;100572.03;5462150;25;64629;-35
2024/04/08 10:13:21;;;;;;;4.45;2.08;;;;;;;37.14;74.66;100573.19;5469619;25;68872;-35
2024/04/08 10:15:52;;;;;;;2.20;1.83;;;;;;;37.06;74.38;100569.06;5474950;25;66468;-34
2024/04/08 10:18:23;;;;;;;8.40;2.75;;;;;;;37.01;75.27;100570.94;5474308;25;67440;-34
2024/04/08 10:20:55;;;;;;;4.72;2.25;;;;;;;36.96;75.49;100579.94;5478677;25;64102;-34
2024/04/08 10:23:30;;;;;;;9.82;2.70;;;;;;;36.92;74.09;100570.63;5456948;25;68842;-35
2024/04/08 10:26:10;;;;;;;3.88;2.30;;;;;;;36.98;74.71;100577.75;5465082;25;65701;-35
2024/04/08 10:28:42;;;;;;;4.97;2.53;;;;;;;36.75;75.42;100551.72;5452532;25;67790;-35
2024/04/08 10:31:13;;;;;;;16.48;3.22;;;;;;;36.93;74.35;100580.47;5463660;25;65089;-34
2024/04/08 10:33:44;;;;;;;4.43;2.53;;;;;;;36.91;74.53;100588.91;5472279;25;67910;-34
2024/04/08 10:36:14;;;;;;;15.10;2.80;;;;;;;36.91;74.43;100588.91;5438716;25;64967;-35
2024/04/08 10:38:46;;;;;;;7.43;2.92;;;;;;;36.84;73.89;100588.38;5465289;25;68762;-34
2024/04/08 10:41:17;;;;;;;6.43;3.03;;;;;;;36.82;74.62;100596.00;5481884;25;64982;-35
2024/04/08 10:43:49;;;;;;;3.75;2.60;;;;;;;36.72;74.16;100600.59;5439466;25;67817;-34
2024/04/08 10:46:21;;;;;;;5.55;2.83;;;;;;;36.72;74.01;100586.94;5479011;25;64663;-35
2024/04/08 10:48:51;;;;;;;8.90;2.72;;;;;;;36.59;74.51;100588.28;5475242;25;68374;-34
2024/04/08 10:51:22;;;;;;;4.70;3.33;;;;;;;36.66;73.50;100581.47;5460480;25;65693;-34
2024/04/08 10:53:53;;;;;;;8.20;3.53;;;;;;;36.57;74.29;100588.53;5472192;25;69614;-35
2024/04/08 10:56:24;;;;;;;8.75;3.60;;;;;;;36.55;74.21;100596.16;5464639;25;66250;-36
2024/04/08 10:58:56;;;;;;;12.27;4.47;;;;;;;36.51;73.76;100592.31;5474854;25;68820;-36
2024/04/08 11:01:27;;;;;;;10.13;4.20;;;;;;;36.51;74.10;100594.22;5474707;25;65664;-35
2024/04/08 11:03:59;;;;;;;7.00;3.35;;;;;;;36.46;74.14;100587.63;5463872;25;67957;-36
2024/04/08 11:06:31;;;;;;;5.68;3.45;;;;;;;36.41;72.87;100590.34;5479464;25;64852;-37
2024/04/08 11:09:05;;;;;;;8.77;3.42;;;;;;;36.39;73.14;100595.25;5454553;25;68713;-35
2024/04/08 11:11:36;;;;;;;5.43;3.28;;;;;;;36.36;73.40;100598.53;5457989;25;64199;-35
2024/04/08 11:14:07;;;;;;;6.82;2.65;;;;;;;36.27;73.22;100596.53;5464661;25;69109;-37
2024/04/08 11:16:39;;;;;;;9.45;3.35;;;;;;;36.15;73.57;100596.75;5460209;25;65819;-35
2024/04/08 11:19:12;;;;;;;8.65;3.10;;;;;;;35.72;73.86;100549.47;5474763;25;68168;-35
2024/04/08 11:21:44;;;;;;;6.72;2.55;;;;;;;35.94;74.88;100604.78;5473190;25;65005;-35
2024/04/08 11:24:15;;;;;;;9.15;2.90;;;;;;;35.92;74.57;100597.94;5469640;25;68743;-35
2024/04/08 11:26:46;;;;;;;6.43;2.97;;;;;;;35.80;75.28;100593.47;5476087;25;63747;-35
2024/04/08 11:29:28;;;;;;;12.10;3.17;;;;;;;35.78;74.57;100598.38;5443098;25;68914;-35
2024/04/08 11:31:58;;;;;;;4.45;2.60;;;;;;;35.70;75.49;100617.13;5461074;25;64895;-34
2024/04/08 11:34:29;;;;;;;7.93;2.60;;;;;;;35.55;76.22;100607.69;5468273;25;69125;-36
2024/04/08 11:37:02;;;;;;;9.03;3.40;;;;;;;35.50;76.71;100618.56;5463668;25;64921;-35
2024/04/08 11:39:33;;;;;;;3.58;2.15;;;;;;;35.45;76.04;100631.31;5450962;25;69425;-34
2024/04/08 11:42:05;;;;;;;7.72;3.72;;;;;;;35.37;77.08;100640.78;5456816;25;64400;-34
2024/04/08 11:44:41;;;;;;;4.10;3.40;;;;;;;35.21;76.38;100625.34;5456361;25;69120;-35
2024/04/08 11:47:13;;;;;;;3.28;2.33;;;;;;;35.32;76.62;100633.34;5442262;26;64556;-35